This is the latest recevied weather packets stored in our database for station/object WB6ANP. If no packets are shown the sender has not sent any weather packets the latest 10 day(s).
| Time | Temp. | Humidity | Pressure | Rain* | Wind** | Luminosity | Snow |
|---|---|---|---|---|---|---|---|
| 1777402728 | 29.44° C | 73% | 1010.2 hPa | 0 mm | - | 533 W/m² | - |
| 1777402424 | 29.44° C | 72% | 1010.4 hPa | 0 mm | - | 796 W/m² | - |
| 1777402122 | 30° C | 71% | 1010.5 hPa | 0 mm | - | 673 W/m² | - |
| 1777401818 | 30° C | 70% | 1010.4 hPa | 0 mm | - | 385 W/m² | - |
| 1777401517 | 30° C | 70% | 1010.5 hPa | 0 mm | - | 197 W/m² | - |
| 1777401213 | 30° C | 70% | 1010.6 hPa | 0 mm | - | 917 W/m² | - |
| 1777400909 | 28.89° C | 73% | 1010.8 hPa | 0 mm | - | 797 W/m² | - |
| 1777400605 | 29.44° C | 72% | 1010.7 hPa | 0 mm | - | 257 W/m² | - |
| 1777400303 | 29.44° C | 73% | 1011.1 hPa | 0 mm | - | 722 W/m² | - |
| 1777399998 | 28.89° C | 73% | 1011.3 hPa | 0 mm | - | 364 W/m² | - |
| 1777399696 | 28.89° C | 74% | 1011.1 hPa | 0 mm | - | 705 W/m² | - |
| 1777399392 | 28.89° C | 75% | 1011 hPa | 0 mm | - | 400 W/m² | - |
| 1777399090 | 28.89° C | 73% | 1011.3 hPa | 0 mm | - | 731 W/m² | - |
| 1777398787 | 29.44° C | 74% | 1011.1 hPa | 0 mm | - | 792 W/m² | - |
| 1777398485 | 28.89° C | 77% | 1011.5 hPa | 0 mm | - | 895 W/m² | - |
| 1777398181 | 28.33° C | 77% | 1011.8 hPa | 0 mm | - | 874 W/m² | - |
| 1777397878 | 27.78° C | 79% | 1011.9 hPa | 0 mm | - | 781 W/m² | - |
| 1777397578 | 27.78° C | 79% | 1011.9 hPa | 0 mm | - | 243 W/m² | - |
| 1777397274 | 27.78° C | 78% | 1011.9 hPa | 0 mm | - | 395 W/m² | - |
| 1777396972 | 27.78° C | 78% | 1011.8 hPa | 0 mm | - | 410 W/m² | - |
| 1777396669 | 27.78° C | 78% | 1011.8 hPa | 0 mm | - | 706 W/m² | - |
| 1777396365 | 27.22° C | 80% | 1011.8 hPa | 0 mm | - | 328 W/m² | - |
| 1777396062 | 27.78° C | 78% | 1011.8 hPa | 0 mm | - | 503 W/m² | - |
| 1777395757 | 26.67° C | 81% | 1011.9 hPa | 0 mm | - | 548 W/m² | - |
| 1777395452 | 26.67° C | 81% | 1011.9 hPa | 0 mm | - | 316 W/m² | - |
* Rain latest hour (hover to see other rain measurements)
** Current wind speed in m/s (hover to see current wind gust speed)